Time;durP1;ratioP1;P1;durP2;ratioP2;P2;SDS_P1;SDS_P2;PMS_P1;PMS_P2;Temp;Humidity;BMP_temperature;BMP_pressure;BME280_temperature;BME280_humidity;BME280_pressure;Samples;Min_cycle;Max_cycle;Signal;HPM_P1;HPM_P2
2022/02/06 00:00:14;;;;;;;13.87;4.43;;;;;;;;;;5036481;28;20169;-71
2022/02/06 00:02:43;;;;;;;11.40;4.20;;;;;;;;;;5034445;28;20238;-71
2022/02/06 00:05:10;;;;;;;17.93;5.40;;;;;;;;;;5018070;28;20184;-71
2022/02/06 00:07:35;;;;;;;15.70;4.70;;;;;;;;;;5041436;28;20184;-70
2022/02/06 00:10:01;;;;;;;14.00;4.17;;;;;;;;;;5043624;28;20193;-70
2022/02/06 00:12:27;;;;;;;12.57;3.83;;;;;;;;;;5037192;28;20205;-71
2022/02/06 00:14:53;;;;;;;15.30;4.33;;;;;;;;;;5040834;28;20193;-70
2022/02/06 00:17:18;;;;;;;19.30;4.90;;;;;;;;;;5005537;28;20178;-71
2022/02/06 00:19:43;;;;;;;17.73;4.77;;;;;;;;;;5034939;28;20356;-71
2022/02/06 00:22:12;;;;;;;18.57;4.70;;;;;;;;;;5020527;28;20227;-71
2022/02/06 00:24:56;;;;;;;15.67;4.57;;;;;;;;;;5027699;28;20208;-70
2022/02/06 00:27:30;;;;;;;14.13;4.50;;;;;;;;;;5022296;28;20181;-72
2022/02/06 00:30:05;;;;;;;16.97;5.10;;;;;;;;;;5036061;28;20177;-72
2022/02/06 00:32:42;;;;;;;14.07;4.80;;;;;;;;;;5035069;28;20221;-72
2022/02/06 00:35:26;;;;;;;15.13;4.97;;;;;;;;;;5042593;28;20180;-72
2022/02/06 00:43:19;;;;;;;15.40;4.23;;;;;;;;;;5048798;28;20212;-72
2022/02/06 00:45:45;;;;;;;26.30;6.00;;;;;;;;;;5046161;28;20209;-73
2022/02/06 00:48:10;;;;;;;18.23;5.03;;;;;;;;;;5037412;28;20202;-71
2022/02/06 00:50:40;;;;;;;17.73;5.10;;;;;;;;;;5032166;28;20380;-72
2022/02/06 00:53:09;;;;;;;14.20;5.03;;;;;;;;;;5032887;28;20202;-73
2022/02/06 00:55:34;;;;;;;17.30;4.40;;;;;;;;;;5039786;28;20182;-71
2022/02/06 00:57:59;;;;;;;14.37;4.37;;;;;;;;;;5036550;28;20197;-71
2022/02/06 01:00:24;;;;;;;13.83;4.93;;;;;;;;;;5042690;28;20166;-70
2022/02/06 01:02:50;;;;;;;15.33;4.93;;;;;;;;;;5035055;28;20174;-71
2022/02/06 01:05:15;;;;;;;14.93;5.10;;;;;;;;;;5048697;28;20235;-72
2022/02/06 01:10:14;;;;;;;21.87;4.20;;;;;;;;;;5042564;28;20249;-68
2022/02/06 01:12:42;;;;;;;17.50;4.83;;;;;;;;;;5036596;28;20221;-69
2022/02/06 01:15:22;;;;;;;17.20;6.20;;;;;;;;;;5029650;28;20177;-69
2022/02/06 01:18:00;;;;;;;21.53;3.90;;;;;;;;;;5031971;28;20260;-69
2022/02/06 01:20:40;;;;;;;23.30;4.37;;;;;;;;;;5040498;28;20177;-69
2022/02/06 01:23:25;;;;;;;20.47;4.13;;;;;;;;;;5033345;28;20603;-68
2022/02/06 01:26:07;;;;;;;20.07;4.13;;;;;;;;;;5033977;28;20535;-68
2022/02/06 01:28:38;;;;;;;16.07;4.60;;;;;;;;;;5036679;28;20285;-69
2022/02/06 01:31:29;;;;;;;19.60;4.77;;;;;;;;;;5025975;28;20182;-68
2022/02/06 01:33:58;;;;;;;26.87;5.37;;;;;;;;;;5046910;28;20182;-69
2022/02/06 01:36:32;;;;;;;23.30;5.10;;;;;;;;;;5026700;28;20182;-68
2022/02/06 01:41:32;;;;;;;28.97;5.60;;;;;;;;;;5029704;28;20231;-68
2022/02/06 01:44:07;;;;;;;20.37;4.80;;;;;;;;;;5031052;28;20186;-69
2022/02/06 02:11:39;;;;;;;21.20;5.83;;;;;;;;;;5029225;28;20177;-68
2022/02/06 02:14:23;;;;;;;19.63;4.63;;;;;;;;;;5030819;28;20727;-69
2022/02/06 02:25:02;;;;;;;27.83;5.10;;;;;;;;;;5031628;28;20257;-69
2022/02/06 02:48:17;;;;;;;21.80;3.97;;;;;;;;;;5036549;28;20682;-68
2022/02/06 02:50:47;;;;;;;27.03;5.67;;;;;;;;;;5035810;28;20212;-68
2022/02/06 02:55:56;;;;;;;16.10;4.40;;;;;;;;;;5042737;28;20257;-68
2022/02/06 02:58:43;;;;;;;19.43;4.30;;;;;;;;;;5029428;28;20193;-69
2022/02/06 03:01:56;;;;;;;26.93;6.73;;;;;;;;;;5052229;28;20177;-69
2022/02/06 03:03:54;;;;;;;20.50;4.40;;;;;;;;;;5041110;28;20658;-68
2022/02/06 03:06:19;;;;;;;24.33;5.43;;;;;;;;;;5053133;28;20189;-68
2022/02/06 03:08:46;;;;;;;22.60;5.80;;;;;;;;;;5034532;28;20212;-69
2022/02/06 03:11:11;;;;;;;18.17;3.87;;;;;;;;;;5052753;28;20231;-69
2022/02/06 03:18:44;;;;;;;19.77;3.60;;;;;;;;;;5046757;28;20216;-68
2022/02/06 03:21:17;;;;;;;23.67;4.50;;;;;;;;;;5052594;28;20189;-68
2022/02/06 03:23:48;;;;;;;20.23;4.47;;;;;;;;;;5050581;28;20192;-69
2022/02/06 03:26:13;;;;;;;25.67;5.50;;;;;;;;;;5051429;28;20287;-69
2022/02/06 03:28:38;;;;;;;18.50;4.17;;;;;;;;;;5046156;28;20699;-69
2022/02/06 03:31:05;;;;;;;21.03;4.23;;;;;;;;;;5013649;28;20178;-68
2022/02/06 03:33:30;;;;;;;22.37;3.43;;;;;;;;;;5032638;28;20271;-69
2022/02/06 03:35:56;;;;;;;21.53;4.97;;;;;;;;;;5049256;28;20655;-69
2022/02/06 03:38:21;;;;;;;16.87;3.27;;;;;;;;;;5047992;28;20205;-69
2022/02/06 03:40:55;;;;;;;13.83;3.17;;;;;;;;;;5051986;28;20181;-69
2022/02/06 03:43:28;;;;;;;15.77;3.87;;;;;;;;;;5044122;28;20423;-70
2022/02/06 03:45:59;;;;;;;19.37;4.40;;;;;;;;;;5061091;28;20204;-69
2022/02/06 03:48:34;;;;;;;18.17;3.77;;;;;;;;;;5052644;28;20605;-69
2022/02/06 03:51:05;;;;;;;32.67;5.07;;;;;;;;;;5048994;28;20696;-68
2022/02/06 03:53:30;;;;;;;16.43;4.30;;;;;;;;;;5048239;28;20216;-69
2022/02/06 03:55:58;;;;;;;20.07;4.90;;;;;;;;;;5050979;28;20174;-69
2022/02/06 03:58:23;;;;;;;26.93;4.10;;;;;;;;;;5048610;28;20277;-69
2022/02/06 04:00:48;;;;;;;21.40;4.23;;;;;;;;;;5032362;28;20367;-69
2022/02/06 04:03:14;;;;;;;15.87;4.10;;;;;;;;;;5049944;28;20173;-72
2022/02/06 04:05:44;;;;;;;25.47;4.67;;;;;;;;;;5048668;28;20197;-70
2022/02/06 04:08:13;;;;;;;19.67;3.57;;;;;;;;;;5050421;28;20225;-68
2022/02/06 04:10:43;;;;;;;18.57;4.20;;;;;;;;;;5049787;28;20200;-68
2022/02/06 04:13:15;;;;;;;17.90;4.60;;;;;;;;;;5049385;28;20225;-69
2022/02/06 04:15:42;;;;;;;24.77;5.40;;;;;;;;;;5051194;28;20250;-69
2022/02/06 04:18:17;;;;;;;25.37;4.70;;;;;;;;;;5050604;28;20197;-68
2022/02/06 04:20:43;;;;;;;22.57;4.60;;;;;;;;;;5050792;28;20177;-69
2022/02/06 04:23:08;;;;;;;28.03;4.77;;;;;;;;;;5047200;28;20190;-68
2022/02/06 04:25:34;;;;;;;20.20;4.80;;;;;;;;;;5045070;28;20661;-68
2022/02/06 04:27:59;;;;;;;25.63;4.43;;;;;;;;;;5049277;28;20213;-68
2022/02/06 04:30:25;;;;;;;21.77;3.70;;;;;;;;;;5049655;28;20643;-68
2022/02/06 04:32:50;;;;;;;17.83;3.37;;;;;;;;;;5017258;28;20209;-71
2022/02/06 04:35:19;;;;;;;23.93;4.97;;;;;;;;;;5035020;28;20565;-69
2022/02/06 04:38:03;;;;;;;21.63;4.93;;;;;;;;;;5049244;28;20186;-69
2022/02/06 04:43:30;;;;;;;24.83;4.37;;;;;;;;;;5039617;28;20222;-68
2022/02/06 04:54:21;;;;;;;26.17;5.33;;;;;;;;;;5049951;28;20723;-69
2022/02/06 05:11:08;;;;;;;24.43;4.80;;;;;;;;;;5048204;28;20182;-68
2022/02/06 05:16:06;;;;;;;29.53;4.80;;;;;;;;;;5045021;28;20177;-68
2022/02/06 05:18:59;;;;;;;23.43;5.20;;;;;;;;;;5049162;28;20193;-67
2022/02/06 05:21:44;;;;;;;24.63;4.23;;;;;;;;;;5049495;28;20611;-68
2022/02/06 05:24:31;;;;;;;25.67;4.93;;;;;;;;;;5045208;28;20193;-68
2022/02/06 05:30:00;;;;;;;14.70;4.70;;;;;;;;;;5050697;28;20254;-68
2022/02/06 05:32:47;;;;;;;26.23;5.60;;;;;;;;;;5050499;28;20525;-68
2022/02/06 05:35:12;;;;;;;24.80;4.80;;;;;;;;;;5038635;28;20268;-67
2022/02/06 05:37:37;;;;;;;21.37;4.03;;;;;;;;;;5037650;28;20632;-68
2022/02/06 05:40:02;;;;;;;27.17;5.17;;;;;;;;;;5047023;28;20217;-69
2022/02/06 05:42:28;;;;;;;21.57;4.47;;;;;;;;;;5030593;28;20281;-68
2022/02/06 05:44:55;;;;;;;27.63;5.23;;;;;;;;;;5048665;28;20555;-68
2022/02/06 05:47:21;;;;;;;29.97;4.57;;;;;;;;;;5049453;28;20663;-69
2022/02/06 05:49:46;;;;;;;23.80;4.63;;;;;;;;;;5048092;28;20232;-69
2022/02/06 05:52:12;;;;;;;18.13;3.93;;;;;;;;;;5048286;28;20210;-68
2022/02/06 05:54:37;;;;;;;18.50;4.40;;;;;;;;;;5048568;28;20177;-69
2022/02/06 05:57:03;;;;;;;28.10;6.23;;;;;;;;;;5046305;28;20174;-68
2022/02/06 05:59:28;;;;;;;25.83;5.27;;;;;;;;;;5048627;28;20193;-69
2022/02/06 06:01:55;;;;;;;26.07;4.73;;;;;;;;;;5045311;28;20227;-68
2022/02/06 06:04:20;;;;;;;23.03;5.47;;;;;;;;;;5048417;28;20557;-69
2022/02/06 06:06:45;;;;;;;13.67;3.53;;;;;;;;;;5046815;28;20182;-69
2022/02/06 06:09:10;;;;;;;30.87;5.33;;;;;;;;;;5030850;28;20218;-71
2022/02/06 06:11:35;;;;;;;28.40;5.30;;;;;;;;;;5049312;28;20185;-70
2022/02/06 06:14:00;;;;;;;32.40;6.40;;;;;;;;;;5048863;28;20205;-68
2022/02/06 06:16:26;;;;;;;22.30;5.00;;;;;;;;;;5030733;28;20190;-70
2022/02/06 06:18:51;;;;;;;32.57;6.80;;;;;;;;;;5048753;28;20193;-68
2022/02/06 06:21:19;;;;;;;29.37;5.87;;;;;;;;;;5048843;28;20173;-69
2022/02/06 06:23:44;;;;;;;24.90;5.27;;;;;;;;;;5048698;28;20185;-68
2022/02/06 06:26:14;;;;;;;30.60;6.57;;;;;;;;;;5048706;28;20335;-71
2022/02/06 06:28:39;;;;;;;23.30;5.40;;;;;;;;;;5047629;28;20680;-69
2022/02/06 06:31:05;;;;;;;23.70;5.60;;;;;;;;;;5048519;28;20331;-68
2022/02/06 06:33:30;;;;;;;26.40;6.07;;;;;;;;;;5045107;28;20209;-68
2022/02/06 06:35:55;;;;;;;24.80;5.20;;;;;;;;;;5029764;28;20713;-68
2022/02/06 06:38:20;;;;;;;27.67;5.53;;;;;;;;;;5016234;28;20198;-68
2022/02/06 06:40:45;;;;;;;26.53;6.27;;;;;;;;;;5049661;28;20181;-68
2022/02/06 06:43:11;;;;;;;24.50;5.33;;;;;;;;;;5049516;28;20217;-69
2022/02/06 06:45:36;;;;;;;28.33;5.50;;;;;;;;;;5044815;28;20268;-70
2022/02/06 06:48:02;;;;;;;24.37;4.80;;;;;;;;;;5046822;28;20228;-70
2022/02/06 06:50:32;;;;;;;28.00;4.27;;;;;;;;;;5048710;28;20327;-71
2022/02/06 06:52:58;;;;;;;28.87;5.23;;;;;;;;;;5048537;28;20205;-68
2022/02/06 06:55:26;;;;;;;24.50;6.17;;;;;;;;;;5048427;28;20177;-69
2022/02/06 06:57:57;;;;;;;36.03;6.40;;;;;;;;;;5048031;28;20295;-69
2022/02/06 07:00:39;;;;;;;25.73;5.23;;;;;;;;;;5046729;28;20269;-69
2022/02/06 07:03:04;;;;;;;20.97;4.77;;;;;;;;;;5047217;28;20250;-69
2022/02/06 07:05:29;;;;;;;27.37;4.47;;;;;;;;;;5028829;28;20186;-68
2022/02/06 07:10:29;;;;;;;21.70;4.77;;;;;;;;;;5047906;28;20320;-71
2022/02/06 07:12:54;;;;;;;24.40;5.17;;;;;;;;;;5049279;28;20292;-71
2022/02/06 07:15:20;;;;;;;21.23;4.73;;;;;;;;;;5034302;28;20184;-71
2022/02/06 07:17:45;;;;;;;26.20;6.43;;;;;;;;;;5052242;28;20252;-72
2022/02/06 07:20:11;;;;;;;36.30;7.10;;;;;;;;;;5033508;28;20701;-70
2022/02/06 07:22:37;;;;;;;34.00;5.83;;;;;;;;;;5051105;28;20639;-71
2022/02/06 07:25:05;;;;;;;24.17;5.30;;;;;;;;;;5050433;28;20178;-70
2022/02/06 07:27:37;;;;;;;16.70;4.00;;;;;;;;;;5051921;28;20550;-71
2022/02/06 07:30:05;;;;;;;18.53;4.43;;;;;;;;;;5050171;28;20672;-71
2022/02/06 07:32:33;;;;;;;26.20;5.77;;;;;;;;;;5047090;28;20198;-72
2022/02/06 07:34:58;;;;;;;14.37;4.57;;;;;;;;;;5048473;28;20193;-71
2022/02/06 07:37:23;;;;;;;21.67;4.33;;;;;;;;;;5051693;28;20248;-71
2022/02/06 07:39:49;;;;;;;27.17;5.20;;;;;;;;;;5051763;28;20190;-71
2022/02/06 07:42:14;;;;;;;29.50;5.57;;;;;;;;;;5041668;28;20177;-71
2022/02/06 07:44:42;;;;;;;20.80;4.83;;;;;;;;;;5049438;28;20182;-70
2022/02/06 07:47:15;;;;;;;30.37;6.23;;;;;;;;;;5034411;28;20292;-71
2022/02/06 07:49:43;;;;;;;34.57;5.73;;;;;;;;;;5050476;28;20193;-71
2022/02/06 07:52:08;;;;;;;21.20;4.30;;;;;;;;;;5049732;28;20209;-71
2022/02/06 07:54:33;;;;;;;31.63;5.80;;;;;;;;;;5050207;28;20642;-71
2022/02/06 07:56:58;;;;;;;24.83;5.67;;;;;;;;;;5052675;28;20174;-71
2022/02/06 07:59:24;;;;;;;20.23;5.90;;;;;;;;;;5051532;28;20209;-71
2022/02/06 08:01:51;;;;;;;28.03;6.10;;;;;;;;;;5054974;28;20182;-71
2022/02/06 08:04:16;;;;;;;21.07;5.37;;;;;;;;;;5027433;28;20177;-71
2022/02/06 08:06:41;;;;;;;14.13;3.90;;;;;;;;;;5040105;28;20178;-71
2022/02/06 08:09:07;;;;;;;16.93;5.70;;;;;;;;;;5052907;28;20236;-71
2022/02/06 08:11:36;;;;;;;27.33;5.10;;;;;;;;;;5051960;28;20166;-71
2022/02/06 08:14:02;;;;;;;25.97;5.67;;;;;;;;;;5052741;28;20730;-72
2022/02/06 08:16:28;;;;;;;17.47;3.77;;;;;;;;;;5055329;28;20205;-72
2022/02/06 08:18:54;;;;;;;26.20;4.67;;;;;;;;;;5055527;28;20206;-71
2022/02/06 08:21:19;;;;;;;18.40;4.27;;;;;;;;;;5036961;28;20177;-73
2022/02/06 08:23:45;;;;;;;14.90;3.83;;;;;;;;;;5048771;28;20177;-71
2022/02/06 08:26:10;;;;;;;21.07;3.27;;;;;;;;;;5055470;28;20234;-72
2022/02/06 08:28:37;;;;;;;19.37;4.67;;;;;;;;;;5062074;28;20189;-72
2022/02/06 08:31:03;;;;;;;21.20;4.33;;;;;;;;;;5058832;28;20172;-72
2022/02/06 08:33:29;;;;;;;15.47;3.53;;;;;;;;;;5061548;28;20212;-72
2022/02/06 08:35:54;;;;;;;20.37;3.70;;;;;;;;;;5040772;28;20181;-72
2022/02/06 08:38:19;;;;;;;16.50;3.33;;;;;;;;;;5053543;28;20233;-71
2022/02/06 08:40:44;;;;;;;19.23;5.13;;;;;;;;;;5055014;28;20782;-72
2022/02/06 08:43:10;;;;;;;17.87;3.50;;;;;;;;;;5033748;28;21020;-71
2022/02/06 08:45:35;;;;;;;18.30;3.87;;;;;;;;;;5033624;28;20247;-72
2022/02/06 08:48:01;;;;;;;18.47;3.50;;;;;;;;;;5054884;28;20178;-72
2022/02/06 08:50:26;;;;;;;17.13;3.90;;;;;;;;;;5042838;28;20169;-71
2022/02/06 08:52:53;;;;;;;11.03;2.87;;;;;;;;;;5039296;28;20202;-72
2022/02/06 08:55:19;;;;;;;18.37;3.43;;;;;;;;;;5042893;28;20209;-71
2022/02/06 08:57:47;;;;;;;12.10;3.40;;;;;;;;;;5058170;28;20170;-71
2022/02/06 09:00:13;;;;;;;15.23;4.70;;;;;;;;;;5056972;28;20686;-71
2022/02/06 09:02:39;;;;;;;19.20;3.63;;;;;;;;;;5054377;28;20326;-72
2022/02/06 09:05:04;;;;;;;16.97;3.83;;;;;;;;;;5054923;28;20669;-72
2022/02/06 09:07:29;;;;;;;12.43;3.00;;;;;;;;;;5054819;28;20562;-72
2022/02/06 09:09:59;;;;;;;15.20;3.00;;;;;;;;;;5054883;28;20209;-72
2022/02/06 09:12:24;;;;;;;17.60;3.03;;;;;;;;;;5051760;28;20200;-72
2022/02/06 09:14:50;;;;;;;12.67;2.97;;;;;;;;;;5051596;28;20177;-72
2022/02/06 09:17:15;;;;;;;14.87;3.77;;;;;;;;;;5051589;28;20239;-72
2022/02/06 09:19:41;;;;;;;9.87;2.80;;;;;;;;;;5052266;28;20269;-72
2022/02/06 09:22:08;;;;;;;20.57;4.13;;;;;;;;;;5055221;28;20178;-72
2022/02/06 09:24:33;;;;;;;11.50;2.57;;;;;;;;;;5046061;28;20170;-72
2022/02/06 09:26:58;;;;;;;12.47;2.60;;;;;;;;;;5050830;28;20174;-72
2022/02/06 09:29:23;;;;;;;12.67;3.27;;;;;;;;;;5051854;28;20300;-73
2022/02/06 09:31:51;;;;;;;7.40;2.30;;;;;;;;;;5050972;28;20218;-71
2022/02/06 09:36:43;;;;;;;11.70;2.33;;;;;;;;;;5050025;28;20174;-71
2022/02/06 09:39:09;;;;;;;8.57;1.90;;;;;;;;;;5052462;28;20194;-72
2022/02/06 09:41:36;;;;;;;9.17;2.30;;;;;;;;;;5050598;28;20550;-71
2022/02/06 09:44:02;;;;;;;10.80;2.83;;;;;;;;;;5044597;28;20780;-71
2022/02/06 09:46:28;;;;;;;10.43;2.40;;;;;;;;;;5021301;28;20659;-71
2022/02/06 09:48:53;;;;;;;15.43;3.07;;;;;;;;;;5050582;28;20216;-73
2022/02/06 09:51:19;;;;;;;9.90;2.40;;;;;;;;;;5051178;28;20704;-72
2022/02/06 09:53:44;;;;;;;12.63;2.17;;;;;;;;;;5048232;28;20232;-72
2022/02/06 09:56:12;;;;;;;9.40;2.50;;;;;;;;;;5054163;28;20716;-72
2022/02/06 09:58:56;;;;;;;12.40;2.30;;;;;;;;;;5044468;28;20197;-73
2022/02/06 10:01:22;;;;;;;9.07;2.20;;;;;;;;;;5050092;28;20189;-72
2022/02/06 10:03:47;;;;;;;7.47;1.80;;;;;;;;;;5050568;28;20188;-73
2022/02/06 10:06:20;;;;;;;10.20;3.40;;;;;;;;;;5050910;28;20181;-72
2022/02/06 10:08:46;;;;;;;9.43;2.37;;;;;;;;;;5050098;28;20217;-70
2022/02/06 10:11:15;;;;;;;7.20;2.70;;;;;;;;;;5038550;28;20717;-72
2022/02/06 10:13:40;;;;;;;10.83;3.00;;;;;;;;;;5046157;28;20232;-72
2022/02/06 10:16:10;;;;;;;8.03;2.10;;;;;;;;;;5032701;28;20212;-73
2022/02/06 10:18:35;;;;;;;8.57;2.00;;;;;;;;;;5050331;28;20200;-73
2022/02/06 10:21:00;;;;;;;14.00;2.90;;;;;;;;;;5033087;28;20560;-72
2022/02/06 10:23:36;;;;;;;9.77;2.03;;;;;;;;;;5049345;28;20189;-73
2022/02/06 10:26:07;;;;;;;9.97;2.10;;;;;;;;;;5050385;28;20662;-72
2022/02/06 10:31:05;;;;;;;12.33;3.60;;;;;;;;;;5051044;28;20200;-73
2022/02/06 10:33:42;;;;;;;12.50;2.73;;;;;;;;;;5049534;28;20288;-73
2022/02/06 10:36:07;;;;;;;13.03;3.30;;;;;;;;;;5050490;28;20555;-74
2022/02/06 10:38:33;;;;;;;8.23;3.13;;;;;;;;;;5050567;28;20212;-74
2022/02/06 10:41:03;;;;;;;6.33;1.60;;;;;;;;;;5050926;28;20174;-73
2022/02/06 10:43:28;;;;;;;9.33;1.97;;;;;;;;;;5049752;28;20177;-73
2022/02/06 10:46:04;;;;;;;10.67;2.87;;;;;;;;;;5046106;28;20171;-72
2022/02/06 10:48:30;;;;;;;14.50;3.27;;;;;;;;;;5030723;28;20206;-72
2022/02/06 10:50:55;;;;;;;5.93;1.93;;;;;;;;;;5049810;28;20222;-74
2022/02/06 10:53:20;;;;;;;15.03;3.13;;;;;;;;;;5049354;28;20674;-74
2022/02/06 10:55:53;;;;;;;11.60;2.73;;;;;;;;;;5051794;28;20181;-72
2022/02/06 10:58:18;;;;;;;10.03;2.20;;;;;;;;;;5036737;28;20252;-75
2022/02/06 11:00:43;;;;;;;12.83;2.27;;;;;;;;;;5054322;28;20224;-73
2022/02/06 11:03:23;;;;;;;9.47;1.83;;;;;;;;;;5053313;28;20182;-74
2022/02/06 11:05:53;;;;;;;10.70;2.30;;;;;;;;;;5031700;28;20182;-75
2022/02/06 11:08:30;;;;;;;9.93;2.70;;;;;;;;;;5050748;28;20247;-73
2022/02/06 11:10:57;;;;;;;13.27;3.50;;;;;;;;;;5053664;28;20185;-74
2022/02/06 11:13:24;;;;;;;14.50;2.90;;;;;;;;;;5034145;28;20598;-73
2022/02/06 11:15:49;;;;;;;9.80;2.43;;;;;;;;;;5051870;28;20174;-73
2022/02/06 11:18:21;;;;;;;6.37;1.57;;;;;;;;;;5053349;28;20204;-72
2022/02/06 11:21:03;;;;;;;7.10;1.57;;;;;;;;;;5053567;28;20588;-73
2022/02/06 11:23:40;;;;;;;3.37;0.90;;;;;;;;;;5034989;28;20185;-73
2022/02/06 11:26:07;;;;;;;3.53;0.53;;;;;;;;;;5053391;28;20173;-73
2022/02/06 11:28:32;;;;;;;1.93;0.60;;;;;;;;;;5053249;28;20197;-73
2022/02/06 11:30:58;;;;;;;2.80;1.27;;;;;;;;;;5053188;28;20178;-73
2022/02/06 11:33:23;;;;;;;3.37;0.40;;;;;;;;;;5053120;28;20208;-73
2022/02/06 11:35:56;;;;;;;0.70;0.40;;;;;;;;;;5035555;28;20174;-73
2022/02/06 11:44:04;;;;;;;2.17;0.63;;;;;;;;;;5057203;28;20192;-72
2022/02/06 11:46:37;;;;;;;1.30;0.50;;;;;;;;;;5050763;28;20173;-72
2022/02/06 11:49:21;;;;;;;6.30;1.27;;;;;;;;;;5045152;28;20205;-74
2022/02/06 11:51:53;;;;;;;5.30;1.17;;;;;;;;;;5042052;28;20188;-71
2022/02/06 11:54:29;;;;;;;6.37;1.30;;;;;;;;;;5051361;28;20185;-71
2022/02/06 11:57:30;;;;;;;10.97;2.50;;;;;;;;;;5034748;28;20614;-71
2022/02/06 12:00:01;;;;;;;9.10;1.40;;;;;;;;;;5051928;28;20193;-71
2022/02/06 12:02:28;;;;;;;5.53;1.60;;;;;;;;;;5033720;28;20195;-71
2022/02/06 12:05:08;;;;;;;4.93;1.43;;;;;;;;;;5051137;28;20212;-71
2022/02/06 12:07:53;;;;;;;9.60;2.30;;;;;;;;;;5044540;28;20229;-70
2022/02/06 12:10:22;;;;;;;6.60;1.97;;;;;;;;;;5050347;28;20217;-73
2022/02/06 12:12:50;;;;;;;9.70;1.30;;;;;;;;;;5034075;28;20201;-72
2022/02/06 12:15:17;;;;;;;7.97;1.87;;;;;;;;;;5047999;28;20550;-74
2022/02/06 12:18:05;;;;;;;8.43;1.27;;;;;;;;;;5051398;28;20716;-73
2022/02/06 12:20:48;;;;;;;9.77;1.63;;;;;;;;;;5049846;28;20659;-73
2022/02/06 12:23:31;;;;;;;11.83;1.37;;;;;;;;;;5050680;28;20659;-70
2022/02/06 12:26:00;;;;;;;4.37;0.97;;;;;;;;;;5028846;28;20201;-71
2022/02/06 12:28:28;;;;;;;3.27;0.60;;;;;;;;;;5033196;28;20198;-71
2022/02/06 12:30:55;;;;;;;11.60;1.20;;;;;;;;;;5051309;28;20173;-70
2022/02/06 12:33:26;;;;;;;4.43;0.80;;;;;;;;;;5049475;28;20201;-70
2022/02/06 12:38:35;;;;;;;5.83;2.47;;;;;;;;;;5040809;28;20213;-71
2022/02/06 12:41:16;;;;;;;6.07;1.53;;;;;;;;;;5029799;28;20177;-71
2022/02/06 12:43:49;;;;;;;4.43;1.10;;;;;;;;;;5046076;28;20178;-71
2022/02/06 12:46:15;;;;;;;3.40;1.07;;;;;;;;;;5050070;28;20235;-71
2022/02/06 12:48:40;;;;;;;8.67;1.17;;;;;;;;;;5049880;28;20288;-71
2022/02/06 12:51:05;;;;;;;7.27;1.63;;;;;;;;;;5050965;28;20181;-71
2022/02/06 12:53:30;;;;;;;8.23;0.90;;;;;;;;;;5051607;28;20204;-70
2022/02/06 12:55:56;;;;;;;4.23;0.90;;;;;;;;;;5046610;28;20189;-70
2022/02/06 12:58:26;;;;;;;7.07;1.13;;;;;;;;;;5049224;28;20198;-69
2022/02/06 13:00:53;;;;;;;7.20;1.67;;;;;;;;;;5050249;28;20178;-70
2022/02/06 13:03:20;;;;;;;5.80;1.00;;;;;;;;;;5048752;28;20180;-71
2022/02/06 13:05:50;;;;;;;7.00;1.10;;;;;;;;;;5029730;28;20240;-72
2022/02/06 13:08:15;;;;;;;5.80;1.10;;;;;;;;;;5050429;28;20211;-71
2022/02/06 13:10:48;;;;;;;13.00;1.53;;;;;;;;;;5022118;22;20306;-69
2022/02/06 13:13:15;;;;;;;13.13;1.73;;;;;;;;;;5027546;28;20662;-69
2022/02/06 13:16:05;;;;;;;5.47;1.50;;;;;;;;;;5031159;28;20261;-68
2022/02/06 13:18:47;;;;;;;8.90;1.63;;;;;;;;;;5012089;28;20187;-69
2022/02/06 13:23:52;;;;;;;11.67;1.77;;;;;;;;;;5025662;28;20174;-69
2022/02/06 13:26:27;;;;;;;6.57;1.27;;;;;;;;;;5029418;28;20185;-69
2022/02/06 13:29:05;;;;;;;5.60;1.57;;;;;;;;;;5031294;28;20205;-68
2022/02/06 13:39:11;;;;;;;7.57;1.07;;;;;;;;;;5028161;28;20252;-69
2022/02/06 13:41:36;;;;;;;4.90;1.50;;;;;;;;;;5009169;28;20188;-69
2022/02/06 13:44:02;;;;;;;4.93;0.93;;;;;;;;;;5025258;28;20592;-69
2022/02/06 13:46:29;;;;;;;6.27;1.40;;;;;;;;;;5035088;28;20296;-69
2022/02/06 13:48:56;;;;;;;4.23;1.10;;;;;;;;;;5009911;28;20206;-69
2022/02/06 13:51:35;;;;;;;4.70;1.50;;;;;;;;;;5023832;28;20261;-68
2022/02/06 13:54:03;;;;;;;8.47;1.97;;;;;;;;;;5027468;28;20597;-69
2022/02/06 13:56:29;;;;;;;6.23;1.50;;;;;;;;;;5026957;28;20269;-69
2022/02/06 13:59:07;;;;;;;7.60;3.00;;;;;;;;;;5028352;28;20288;-69
2022/02/06 14:01:35;;;;;;;7.53;1.40;;;;;;;;;;5028276;28;20186;-68
2022/02/06 14:04:00;;;;;;;4.13;1.60;;;;;;;;;;5008330;28;20284;-69
2022/02/06 14:06:39;;;;;;;7.50;1.20;;;;;;;;;;5009817;28;20190;-68
2022/02/06 14:09:13;;;;;;;4.07;1.10;;;;;;;;;;5015741;28;20202;-68
2022/02/06 14:11:55;;;;;;;3.83;1.30;;;;;;;;;;5021446;28;20285;-69
2022/02/06 14:14:20;;;;;;;5.03;1.17;;;;;;;;;;5023781;28;20217;-69
2022/02/06 14:16:47;;;;;;;5.57;1.30;;;;;;;;;;5028207;28;20644;-68
2022/02/06 14:19:15;;;;;;;6.90;1.40;;;;;;;;;;5025179;28;20248;-69
2022/02/06 14:21:40;;;;;;;6.73;1.70;;;;;;;;;;5027530;28;20188;-68
2022/02/06 14:24:08;;;;;;;3.90;0.93;;;;;;;;;;5031158;28;20273;-69
2022/02/06 14:26:33;;;;;;;4.27;1.10;;;;;;;;;;5026355;28;20182;-68
2022/02/06 14:28:58;;;;;;;3.07;1.20;;;;;;;;;;5031690;28;20643;-69
2022/02/06 14:31:25;;;;;;;3.80;1.20;;;;;;;;;;5031450;28;20201;-68
2022/02/06 14:33:50;;;;;;;3.17;0.93;;;;;;;;;;5032397;28;20209;-68
2022/02/06 14:36:21;;;;;;;5.27;1.53;;;;;;;;;;5031833;28;20175;-68
2022/02/06 14:38:51;;;;;;;4.30;1.17;;;;;;;;;;5013073;28;20223;-68
2022/02/06 14:43:43;;;;;;;5.53;1.90;;;;;;;;;;5029523;28;20221;-68
2022/02/06 14:46:09;;;;;;;6.07;1.30;;;;;;;;;;5028818;28;20462;-68
2022/02/06 14:48:34;;;;;;;3.77;1.10;;;;;;;;;;5030970;28;20206;-68
2022/02/06 14:51:00;;;;;;;3.60;1.27;;;;;;;;;;5027763;28;20244;-68
2022/02/06 14:53:25;;;;;;;3.20;0.97;;;;;;;;;;5031851;28;20301;-68
2022/02/06 14:55:52;;;;;;;5.63;1.07;;;;;;;;;;5033666;28;20225;-68
2022/02/06 14:58:18;;;;;;;6.63;1.20;;;;;;;;;;5014779;28;20179;-68
2022/02/06 15:00:43;;;;;;;8.77;1.80;;;;;;;;;;5033263;28;20205;-69
2022/02/06 15:03:09;;;;;;;5.50;1.30;;;;;;;;;;5030044;28;20552;-68
2022/02/06 15:05:35;;;;;;;5.90;1.37;;;;;;;;;;5030730;28;20564;-68
2022/02/06 15:08:00;;;;;;;4.10;1.10;;;;;;;;;;5031721;28;20186;-68
2022/02/06 15:10:27;;;;;;;4.67;1.40;;;;;;;;;;5034016;28;20237;-68
2022/02/06 15:12:52;;;;;;;4.60;1.43;;;;;;;;;;5032681;28;20251;-68
2022/02/06 15:15:18;;;;;;;8.13;1.40;;;;;;;;;;5029598;28;20190;-68
2022/02/06 15:17:44;;;;;;;5.60;1.27;;;;;;;;;;5032336;28;20659;-68
2022/02/06 15:20:10;;;;;;;3.50;1.30;;;;;;;;;;5013806;28;20206;-67
2022/02/06 15:22:36;;;;;;;6.57;3.20;;;;;;;;;;5032017;28;20186;-69
2022/02/06 15:25:01;;;;;;;4.10;1.30;;;;;;;;;;5032739;28;20182;-68
2022/02/06 15:27:26;;;;;;;6.67;1.17;;;;;;;;;;5031919;28;20647;-69
2022/02/06 15:29:51;;;;;;;5.87;1.20;;;;;;;;;;5033194;28;20202;-69
2022/02/06 15:32:18;;;;;;;2.40;1.10;;;;;;;;;;5032235;28;20289;-68
2022/02/06 15:34:44;;;;;;;3.07;1.23;;;;;;;;;;5010470;28;20269;-68
2022/02/06 15:37:13;;;;;;;6.73;1.30;;;;;;;;;;5032511;28;20614;-69
2022/02/06 15:39:38;;;;;;;3.50;1.33;;;;;;;;;;5032618;28;20213;-68
2022/02/06 15:42:05;;;;;;;4.57;1.37;;;;;;;;;;5026456;28;20179;-69
2022/02/06 15:44:31;;;;;;;6.50;1.57;;;;;;;;;;5031069;28;20213;-69
2022/02/06 15:46:56;;;;;;;5.90;1.20;;;;;;;;;;5031706;28;20214;-69
2022/02/06 15:49:21;;;;;;;3.47;1.13;;;;;;;;;;5029746;28;20648;-69
2022/02/06 15:51:46;;;;;;;4.67;1.33;;;;;;;;;;5028195;28;20257;-69
2022/02/06 15:54:12;;;;;;;3.70;1.33;;;;;;;;;;5029627;28;20205;-69
2022/02/06 15:56:37;;;;;;;3.03;1.13;;;;;;;;;;5032787;28;20656;-69
2022/02/06 15:59:03;;;;;;;2.60;1.20;;;;;;;;;;5032095;28;20198;-69
2022/02/06 16:01:29;;;;;;;5.67;1.50;;;;;;;;;;5029895;28;20186;-69
2022/02/06 16:03:54;;;;;;;6.50;1.53;;;;;;;;;;5031927;28;20268;-69
2022/02/06 16:06:19;;;;;;;7.00;1.63;;;;;;;;;;5030683;28;20534;-69
2022/02/06 16:08:44;;;;;;;3.60;1.40;;;;;;;;;;5030009;28;20185;-69
2022/02/06 16:11:10;;;;;;;5.53;1.87;;;;;;;;;;5028905;28;20293;-70
2022/02/06 16:13:35;;;;;;;14.90;2.03;;;;;;;;;;5000047;28;20245;-69
2022/02/06 16:16:00;;;;;;;6.73;1.70;;;;;;;;;;5030754;28;20177;-70
2022/02/06 16:18:25;;;;;;;5.23;2.13;;;;;;;;;;5030133;28;20186;-69
2022/02/06 16:20:52;;;;;;;8.57;1.20;;;;;;;;;;5030126;28;20670;-69
2022/02/06 16:23:17;;;;;;;4.30;1.10;;;;;;;;;;5012387;28;20174;-70
2022/02/06 16:25:42;;;;;;;4.33;1.63;;;;;;;;;;5014637;28;20236;-70
2022/02/06 16:28:08;;;;;;;3.93;0.90;;;;;;;;;;5031631;28;20268;-70
2022/02/06 16:30:33;;;;;;;6.03;2.23;;;;;;;;;;5014557;28;20194;-70
2022/02/06 16:32:58;;;;;;;6.73;1.33;;;;;;;;;;5031268;28;20705;-69
2022/02/06 16:35:23;;;;;;;3.60;0.90;;;;;;;;;;5031136;28;20171;-70
2022/02/06 16:37:49;;;;;;;2.90;1.30;;;;;;;;;;5030095;28;20178;-70
2022/02/06 16:40:14;;;;;;;6.70;1.33;;;;;;;;;;5012192;28;20214;-70
2022/02/06 16:42:40;;;;;;;5.13;1.10;;;;;;;;;;5030673;28;20656;-70
2022/02/06 16:45:05;;;;;;;9.47;1.00;;;;;;;;;;5028105;28;20637;-69
2022/02/06 16:47:30;;;;;;;4.17;0.60;;;;;;;;;;5029115;28;20607;-71
2022/02/06 16:49:55;;;;;;;3.17;0.83;;;;;;;;;;5030084;28;20582;-70
2022/02/06 16:52:21;;;;;;;2.93;0.60;;;;;;;;;;5029599;28;20202;-71
2022/02/06 16:54:46;;;;;;;2.90;0.83;;;;;;;;;;5012046;28;20189;-70